sensor_id;sensor_type;location;lat;lon;timestamp;P1;durP1;ratioP1;P2;durP2;ratioP2
14001;SDS011;7076;51.280;12.584;2023-06-26T00:03:58;3.42;;;3.00;;
14001;SDS011;7076;51.280;12.584;2023-06-26T00:09:01;3.15;;;2.85;;
14001;SDS011;7076;51.280;12.584;2023-06-26T00:14:05;6.40;;;3.17;;
14001;SDS011;7076;51.280;12.584;2023-06-26T00:19:08;3.40;;;2.70;;
14001;SDS011;7076;51.280;12.584;2023-06-26T00:24:11;3.20;;;2.83;;
14001;SDS011;7076;51.280;12.584;2023-06-26T00:29:15;3.72;;;3.10;;
14001;SDS011;7076;51.280;12.584;2023-06-26T00:34:18;3.60;;;3.22;;
14001;SDS011;7076;51.280;12.584;2023-06-26T00:39:21;3.25;;;2.95;;
14001;SDS011;7076;51.280;12.584;2023-06-26T00:44:28;3.38;;;3.08;;
14001;SDS011;7076;51.280;12.584;2023-06-26T00:49:31;4.00;;;3.40;;
14001;SDS011;7076;51.280;12.584;2023-06-26T00:54:34;5.05;;;2.90;;
14001;SDS011;7076;51.280;12.584;2023-06-26T00:59:38;4.75;;;3.05;;
14001;SDS011;7076;51.280;12.584;2023-06-26T01:04:41;3.08;;;2.78;;
14001;SDS011;7076;51.280;12.584;2023-06-26T01:09:48;4.32;;;3.38;;
14001;SDS011;7076;51.280;12.584;2023-06-26T01:14:53;3.42;;;2.88;;
14001;SDS011;7076;51.280;12.584;2023-06-26T01:19:58;3.67;;;3.33;;
14001;SDS011;7076;51.280;12.584;2023-06-26T01:25:08;3.90;;;3.35;;
14001;SDS011;7076;51.280;12.584;2023-06-26T01:30:21;3.33;;;3.03;;
14001;SDS011;7076;51.280;12.584;2023-06-26T01:35:24;3.97;;;3.28;;
14001;SDS011;7076;51.280;12.584;2023-06-26T01:40:27;3.55;;;3.22;;
14001;SDS011;7076;51.280;12.584;2023-06-26T01:45:31;3.88;;;3.10;;
14001;SDS011;7076;51.280;12.584;2023-06-26T01:50:35;4.63;;;2.95;;
14001;SDS011;7076;51.280;12.584;2023-06-26T01:55:40;3.55;;;2.78;;
14001;SDS011;7076;51.280;12.584;2023-06-26T02:00:46;3.92;;;3.53;;
14001;SDS011;7076;51.280;12.584;2023-06-26T02:05:50;5.30;;;3.03;;
14001;SDS011;7076;51.280;12.584;2023-06-26T02:10:53;5.53;;;3.38;;
14001;SDS011;7076;51.280;12.584;2023-06-26T02:15:57;4.97;;;3.20;;
14001;SDS011;7076;51.280;12.584;2023-06-26T02:21:02;3.90;;;3.40;;
14001;SDS011;7076;51.280;12.584;2023-06-26T02:26:05;3.53;;;3.05;;
14001;SDS011;7076;51.280;12.584;2023-06-26T02:31:10;8.98;;;3.15;;
14001;SDS011;7076;51.280;12.584;2023-06-26T02:36:12;4.72;;;3.50;;
14001;SDS011;7076;51.280;12.584;2023-06-26T02:41:15;6.32;;;3.50;;
14001;SDS011;7076;51.280;12.584;2023-06-26T02:46:20;5.15;;;3.55;;
14001;SDS011;7076;51.280;12.584;2023-06-26T02:51:23;4.95;;;3.33;;
14001;SDS011;7076;51.280;12.584;2023-06-26T02:56:27;3.78;;;3.47;;
14001;SDS011;7076;51.280;12.584;2023-06-26T03:01:33;6.80;;;3.63;;
14001;SDS011;7076;51.280;12.584;2023-06-26T03:06:37;3.70;;;3.20;;
14001;SDS011;7076;51.280;12.584;2023-06-26T03:11:39;4.03;;;3.63;;
14001;SDS011;7076;51.280;12.584;2023-06-26T03:16:44;4.55;;;3.42;;
14001;SDS011;7076;51.280;12.584;2023-06-26T03:21:47;7.75;;;4.15;;
14001;SDS011;7076;51.280;12.584;2023-06-26T03:26:50;6.45;;;3.95;;
14001;SDS011;7076;51.280;12.584;2023-06-26T03:31:55;5.85;;;3.65;;
14001;SDS011;7076;51.280;12.584;2023-06-26T03:36:58;3.72;;;3.40;;
14001;SDS011;7076;51.280;12.584;2023-06-26T03:42:00;5.38;;;3.28;;
14001;SDS011;7076;51.280;12.584;2023-06-26T03:47:05;3.80;;;3.15;;
14001;SDS011;7076;51.280;12.584;2023-06-26T03:52:09;4.78;;;3.53;;
14001;SDS011;7076;51.280;12.584;2023-06-26T03:57:13;3.83;;;3.50;;
14001;SDS011;7076;51.280;12.584;2023-06-26T04:02:17;6.20;;;4.20;;
14001;SDS011;7076;51.280;12.584;2023-06-26T04:07:21;4.20;;;3.63;;
14001;SDS011;7076;51.280;12.584;2023-06-26T04:12:24;7.55;;;4.05;;
14001;SDS011;7076;51.280;12.584;2023-06-26T04:17:28;8.00;;;4.45;;
14001;SDS011;7076;51.280;12.584;2023-06-26T04:22:31;5.32;;;4.00;;
14001;SDS011;7076;51.280;12.584;2023-06-26T04:27:34;4.45;;;3.88;;
14001;SDS011;7076;51.280;12.584;2023-06-26T04:32:41;5.85;;;3.88;;
14001;SDS011;7076;51.280;12.584;2023-06-26T04:37:44;10.10;;;3.83;;
14001;SDS011;7076;51.280;12.584;2023-06-26T04:42:47;4.82;;;3.50;;
14001;SDS011;7076;51.280;12.584;2023-06-26T04:47:51;5.57;;;3.92;;
14001;SDS011;7076;51.280;12.584;2023-06-26T04:52:54;5.53;;;3.72;;
14001;SDS011;7076;51.280;12.584;2023-06-26T04:57:57;5.03;;;3.85;;
14001;SDS011;7076;51.280;12.584;2023-06-26T05:03:02;4.78;;;3.83;;
14001;SDS011;7076;51.280;12.584;2023-06-26T05:08:14;8.27;;;3.65;;
14001;SDS011;7076;51.280;12.584;2023-06-26T05:13:18;3.85;;;3.33;;
14001;SDS011;7076;51.280;12.584;2023-06-26T05:18:22;7.07;;;3.58;;
14001;SDS011;7076;51.280;12.584;2023-06-26T05:23:25;6.40;;;3.67;;
14001;SDS011;7076;51.280;12.584;2023-06-26T05:28:29;7.05;;;3.67;;
14001;SDS011;7076;51.280;12.584;2023-06-26T05:33:35;6.47;;;4.05;;
14001;SDS011;7076;51.280;12.584;2023-06-26T05:38:39;4.53;;;3.85;;
14001;SDS011;7076;51.280;12.584;2023-06-26T05:43:42;5.97;;;3.83;;
14001;SDS011;7076;51.280;12.584;2023-06-26T05:48:46;4.72;;;4.07;;
14001;SDS011;7076;51.280;12.584;2023-06-26T05:53:49;4.82;;;3.67;;
14001;SDS011;7076;51.280;12.584;2023-06-26T05:58:53;4.00;;;3.67;;
14001;SDS011;7076;51.280;12.584;2023-06-26T06:03:57;4.25;;;3.80;;
14001;SDS011;7076;51.280;12.584;2023-06-26T06:09:00;3.80;;;3.40;;
14001;SDS011;7076;51.280;12.584;2023-06-26T06:14:03;4.53;;;3.85;;
14001;SDS011;7076;51.280;12.584;2023-06-26T06:19:08;4.20;;;3.80;;
14001;SDS011;7076;51.280;12.584;2023-06-26T06:24:14;4.57;;;3.63;;
14001;SDS011;7076;51.280;12.584;2023-06-26T06:29:17;4.78;;;3.47;;
14001;SDS011;7076;51.280;12.584;2023-06-26T06:34:22;4.20;;;3.80;;
14001;SDS011;7076;51.280;12.584;2023-06-26T06:39:25;5.97;;;4.03;;
14001;SDS011;7076;51.280;12.584;2023-06-26T06:44:30;3.72;;;3.42;;
14001;SDS011;7076;51.280;12.584;2023-06-26T06:49:34;8.63;;;4.03;;
14001;SDS011;7076;51.280;12.584;2023-06-26T06:54:50;4.72;;;3.83;;
14001;SDS011;7076;51.280;12.584;2023-06-26T06:59:54;6.82;;;4.10;;
14001;SDS011;7076;51.280;12.584;2023-06-26T07:04:58;4.47;;;4.07;;
14001;SDS011;7076;51.280;12.584;2023-06-26T07:10:03;3.97;;;3.58;;
14001;SDS011;7076;51.280;12.584;2023-06-26T07:15:07;4.50;;;4.00;;
14001;SDS011;7076;51.280;12.584;2023-06-26T07:20:12;7.85;;;4.55;;
14001;SDS011;7076;51.280;12.584;2023-06-26T07:25:16;5.95;;;3.80;;
14001;SDS011;7076;51.280;12.584;2023-06-26T07:30:19;6.22;;;4.00;;
14001;SDS011;7076;51.280;12.584;2023-06-26T07:35:24;4.93;;;3.90;;
14001;SDS011;7076;51.280;12.584;2023-06-26T07:40:29;5.72;;;4.07;;
14001;SDS011;7076;51.280;12.584;2023-06-26T07:45:32;5.97;;;4.88;;
14001;SDS011;7076;51.280;12.584;2023-06-26T07:50:36;8.10;;;4.15;;
14001;SDS011;7076;51.280;12.584;2023-06-26T07:55:39;6.43;;;4.22;;
14001;SDS011;7076;51.280;12.584;2023-06-26T08:00:42;4.88;;;4.35;;
14001;SDS011;7076;51.280;12.584;2023-06-26T08:05:47;7.78;;;4.35;;
14001;SDS011;7076;51.280;12.584;2023-06-26T08:10:50;5.30;;;4.50;;
14001;SDS011;7076;51.280;12.584;2023-06-26T08:15:53;6.00;;;4.68;;
14001;SDS011;7076;51.280;12.584;2023-06-26T08:20:57;6.13;;;4.40;;
14001;SDS011;7076;51.280;12.584;2023-06-26T08:26:00;6.07;;;4.30;;
14001;SDS011;7076;51.280;12.584;2023-06-26T08:31:03;5.78;;;4.38;;
14001;SDS011;7076;51.280;12.584;2023-06-26T08:36:08;6.05;;;4.13;;
14001;SDS011;7076;51.280;12.584;2023-06-26T08:41:11;6.80;;;4.20;;
14001;SDS011;7076;51.280;12.584;2023-06-26T08:46:14;5.45;;;3.92;;
14001;SDS011;7076;51.280;12.584;2023-06-26T08:51:18;4.38;;;3.97;;
14001;SDS011;7076;51.280;12.584;2023-06-26T08:56:24;8.07;;;4.60;;
14001;SDS011;7076;51.280;12.584;2023-06-26T09:01:30;9.65;;;4.60;;
14001;SDS011;7076;51.280;12.584;2023-06-26T09:06:35;4.82;;;4.03;;
14001;SDS011;7076;51.280;12.584;2023-06-26T09:11:37;7.97;;;4.53;;
14001;SDS011;7076;51.280;12.584;2023-06-26T09:16:40;9.52;;;4.03;;
14001;SDS011;7076;51.280;12.584;2023-06-26T09:21:45;4.90;;;3.85;;
14001;SDS011;7076;51.280;12.584;2023-06-26T09:26:51;7.32;;;3.97;;
14001;SDS011;7076;51.280;12.584;2023-06-26T09:31:56;6.40;;;4.18;;
14001;SDS011;7076;51.280;12.584;2023-06-26T09:37:00;5.93;;;3.80;;
14001;SDS011;7076;51.280;12.584;2023-06-26T09:42:04;4.95;;;3.80;;
14001;SDS011;7076;51.280;12.584;2023-06-26T09:47:08;6.57;;;4.05;;
14001;SDS011;7076;51.280;12.584;2023-06-26T09:52:15;3.97;;;3.58;;
14001;SDS011;7076;51.280;12.584;2023-06-26T09:57:19;4.35;;;3.95;;
14001;SDS011;7076;51.280;12.584;2023-06-26T10:02:22;3.78;;;3.30;;
14001;SDS011;7076;51.280;12.584;2023-06-26T10:07:27;3.40;;;3.10;;
14001;SDS011;7076;51.280;12.584;2023-06-26T10:12:30;3.75;;;3.00;;
14001;SDS011;7076;51.280;12.584;2023-06-26T10:17:35;3.83;;;3.35;;
14001;SDS011;7076;51.280;12.584;2023-06-26T10:22:41;4.18;;;3.33;;
14001;SDS011;7076;51.280;12.584;2023-06-26T10:27:48;5.75;;;3.40;;
14001;SDS011;7076;51.280;12.584;2023-06-26T10:32:55;4.10;;;3.60;;
14001;SDS011;7076;51.280;12.584;2023-06-26T10:38:03;5.82;;;3.95;;
14001;SDS011;7076;51.280;12.584;2023-06-26T10:43:08;5.32;;;4.20;;
14001;SDS011;7076;51.280;12.584;2023-06-26T10:48:13;4.18;;;3.78;;
14001;SDS011;7076;51.280;12.584;2023-06-26T10:53:23;4.00;;;3.60;;
14001;SDS011;7076;51.280;12.584;2023-06-26T10:58:29;5.10;;;3.90;;
14001;SDS011;7076;51.280;12.584;2023-06-26T11:03:33;3.90;;;3.50;;
14001;SDS011;7076;51.280;12.584;2023-06-26T11:08:47;3.80;;;3.40;;
14001;SDS011;7076;51.280;12.584;2023-06-26T11:13:50;4.32;;;3.92;;
14001;SDS011;7076;51.280;12.584;2023-06-26T11:18:53;3.90;;;3.40;;
14001;SDS011;7076;51.280;12.584;2023-06-26T11:24:02;4.28;;;3.38;;
14001;SDS011;7076;51.280;12.584;2023-06-26T11:29:06;8.05;;;3.70;;
14001;SDS011;7076;51.280;12.584;2023-06-26T11:34:10;4.03;;;3.33;;
14001;SDS011;7076;51.280;12.584;2023-06-26T11:39:14;3.95;;;3.50;;
14001;SDS011;7076;51.280;12.584;2023-06-26T11:44:17;7.10;;;3.92;;
14001;SDS011;7076;51.280;12.584;2023-06-26T11:49:22;5.32;;;3.53;;
14001;SDS011;7076;51.280;12.584;2023-06-26T11:54:29;4.05;;;3.65;;
14001;SDS011;7076;51.280;12.584;2023-06-26T11:59:35;3.85;;;3.45;;
14001;SDS011;7076;51.280;12.584;2023-06-26T12:04:41;5.55;;;3.50;;
14001;SDS011;7076;51.280;12.584;2023-06-26T12:09:46;5.20;;;3.60;;
14001;SDS011;7076;51.280;12.584;2023-06-26T12:14:50;3.72;;;3.42;;
14001;SDS011;7076;51.280;12.584;2023-06-26T12:19:53;3.88;;;3.38;;
14001;SDS011;7076;51.280;12.584;2023-06-26T12:24:58;4.78;;;3.58;;
14001;SDS011;7076;51.280;12.584;2023-06-26T12:30:02;3.40;;;3.10;;
14001;SDS011;7076;51.280;12.584;2023-06-26T12:35:07;4.13;;;3.30;;
14001;SDS011;7076;51.280;12.584;2023-06-26T12:40:17;5.18;;;3.42;;
14001;SDS011;7076;51.280;12.584;2023-06-26T12:45:20;3.35;;;3.05;;
14001;SDS011;7076;51.280;12.584;2023-06-26T12:50:36;4.13;;;3.60;;
14001;SDS011;7076;51.280;12.584;2023-06-26T12:55:42;4.07;;;3.28;;
14001;SDS011;7076;51.280;12.584;2023-06-26T13:00:45;3.85;;;3.40;;
14001;SDS011;7076;51.280;12.584;2023-06-26T13:05:47;5.50;;;3.20;;
14001;SDS011;7076;51.280;12.584;2023-06-26T13:10:52;3.67;;;3.38;;
14001;SDS011;7076;51.280;12.584;2023-06-26T13:15:54;3.42;;;3.13;;
14001;SDS011;7076;51.280;12.584;2023-06-26T13:20:57;5.00;;;3.05;;
14001;SDS011;7076;51.280;12.584;2023-06-26T13:26:02;3.50;;;3.10;;
14001;SDS011;7076;51.280;12.584;2023-06-26T13:31:05;3.65;;;3.30;;
14001;SDS011;7076;51.280;12.584;2023-06-26T13:36:08;3.85;;;3.45;;
14001;SDS011;7076;51.280;12.584;2023-06-26T13:41:12;3.95;;;3.55;;
14001;SDS011;7076;51.280;12.584;2023-06-26T13:46:16;3.35;;;3.05;;
14001;SDS011;7076;51.280;12.584;2023-06-26T13:51:19;3.65;;;3.15;;
14001;SDS011;7076;51.280;12.584;2023-06-26T13:56:23;3.30;;;2.88;;
14001;SDS011;7076;51.280;12.584;2023-06-26T14:01:26;4.28;;;3.28;;
14001;SDS011;7076;51.280;12.584;2023-06-26T14:06:29;3.63;;;3.30;;
14001;SDS011;7076;51.280;12.584;2023-06-26T14:11:35;4.38;;;3.00;;
14001;SDS011;7076;51.280;12.584;2023-06-26T14:16:38;4.40;;;3.33;;
14001;SDS011;7076;51.280;12.584;2023-06-26T14:21:42;3.80;;;3.40;;
14001;SDS011;7076;51.280;12.584;2023-06-26T14:26:46;10.40;;;4.68;;
14001;SDS011;7076;51.280;12.584;2023-06-26T14:31:49;17.10;;;5.38;;
14001;SDS011;7076;51.280;12.584;2023-06-26T14:36:56;10.80;;;5.00;;
14001;SDS011;7076;51.280;12.584;2023-06-26T14:42:00;12.00;;;4.75;;
14001;SDS011;7076;51.280;12.584;2023-06-26T14:47:04;6.47;;;4.93;;
14001;SDS011;7076;51.280;12.584;2023-06-26T14:52:07;8.38;;;4.97;;
14001;SDS011;7076;51.280;12.584;2023-06-26T14:57:11;10.02;;;5.60;;
14001;SDS011;7076;51.280;12.584;2023-06-26T15:02:14;6.57;;;5.10;;
14001;SDS011;7076;51.280;12.584;2023-06-26T15:07:18;6.78;;;5.40;;
14001;SDS011;7076;51.280;12.584;2023-06-26T15:12:22;7.75;;;5.82;;
14001;SDS011;7076;51.280;12.584;2023-06-26T15:17:25;7.63;;;5.57;;
14001;SDS011;7076;51.280;12.584;2023-06-26T15:22:28;6.90;;;5.38;;
14001;SDS011;7076;51.280;12.584;2023-06-26T15:27:32;8.10;;;5.05;;
14001;SDS011;7076;51.280;12.584;2023-06-26T15:32:36;7.75;;;4.60;;
14001;SDS011;7076;51.280;12.584;2023-06-26T15:37:39;4.97;;;3.75;;
14001;SDS011;7076;51.280;12.584;2023-06-26T15:42:46;8.75;;;4.07;;
14001;SDS011;7076;51.280;12.584;2023-06-26T15:47:49;6.53;;;4.10;;
14001;SDS011;7076;51.280;12.584;2023-06-26T15:52:53;4.20;;;3.80;;
14001;SDS011;7076;51.280;12.584;2023-06-26T15:57:57;7.30;;;4.25;;
14001;SDS011;7076;51.280;12.584;2023-06-26T16:03:01;4.50;;;3.80;;
14001;SDS011;7076;51.280;12.584;2023-06-26T16:08:05;7.70;;;4.90;;
14001;SDS011;7076;51.280;12.584;2023-06-26T16:13:09;5.85;;;4.00;;
14001;SDS011;7076;51.280;12.584;2023-06-26T16:18:12;7.53;;;4.32;;
14001;SDS011;7076;51.280;12.584;2023-06-26T16:23:15;6.57;;;4.22;;
14001;SDS011;7076;51.280;12.584;2023-06-26T16:28:24;8.00;;;5.53;;
14001;SDS011;7076;51.280;12.584;2023-06-26T16:33:27;5.90;;;4.60;;
14001;SDS011;7076;51.280;12.584;2023-06-26T16:38:30;5.55;;;4.28;;
14001;SDS011;7076;51.280;12.584;2023-06-26T16:43:40;5.25;;;4.70;;
14001;SDS011;7076;51.280;12.584;2023-06-26T16:48:56;7.80;;;4.63;;
14001;SDS011;7076;51.280;12.584;2023-06-26T16:53:59;6.72;;;4.47;;
14001;SDS011;7076;51.280;12.584;2023-06-26T16:59:04;6.85;;;4.72;;
14001;SDS011;7076;51.280;12.584;2023-06-26T17:04:07;9.30;;;5.00;;
14001;SDS011;7076;51.280;12.584;2023-06-26T17:09:10;6.15;;;4.57;;
14001;SDS011;7076;51.280;12.584;2023-06-26T17:14:14;7.32;;;4.40;;
14001;SDS011;7076;51.280;12.584;2023-06-26T17:19:17;9.68;;;4.85;;
14001;SDS011;7076;51.280;12.584;2023-06-26T17:24:20;5.55;;;4.22;;
14001;SDS011;7076;51.280;12.584;2023-06-26T17:29:24;6.13;;;4.40;;
14001;SDS011;7076;51.280;12.584;2023-06-26T17:34:27;6.05;;;4.50;;
14001;SDS011;7076;51.280;12.584;2023-06-26T17:39:30;5.65;;;4.40;;
14001;SDS011;7076;51.280;12.584;2023-06-26T17:44:34;7.18;;;4.70;;
14001;SDS011;7076;51.280;12.584;2023-06-26T17:49:37;7.70;;;4.00;;
14001;SDS011;7076;51.280;12.584;2023-06-26T17:54:40;4.80;;;4.00;;
14001;SDS011;7076;51.280;12.584;2023-06-26T17:59:45;5.28;;;3.75;;
14001;SDS011;7076;51.280;12.584;2023-06-26T18:04:47;6.70;;;3.83;;
14001;SDS011;7076;51.280;12.584;2023-06-26T18:09:50;5.32;;;4.00;;
14001;SDS011;7076;51.280;12.584;2023-06-26T18:14:55;4.30;;;3.65;;
14001;SDS011;7076;51.280;12.584;2023-06-26T18:19:57;4.85;;;3.55;;
14001;SDS011;7076;51.280;12.584;2023-06-26T18:25:00;4.60;;;2.95;;
14001;SDS011;7076;51.280;12.584;2023-06-26T18:30:06;3.70;;;3.40;;
14001;SDS011;7076;51.280;12.584;2023-06-26T18:35:10;10.23;;;3.22;;
14001;SDS011;7076;51.280;12.584;2023-06-26T18:40:13;5.75;;;3.10;;
14001;SDS011;7076;51.280;12.584;2023-06-26T18:45:19;3.50;;;2.72;;
14001;SDS011;7076;51.280;12.584;2023-06-26T18:50:22;5.43;;;3.10;;
14001;SDS011;7076;51.280;12.584;2023-06-26T18:55:29;5.15;;;3.90;;
14001;SDS011;7076;51.280;12.584;2023-06-26T19:00:36;5.90;;;2.95;;
14001;SDS011;7076;51.280;12.584;2023-06-26T19:05:38;6.97;;;3.00;;
14001;SDS011;7076;51.280;12.584;2023-06-26T19:10:43;4.70;;;2.70;;
14001;SDS011;7076;51.280;12.584;2023-06-26T19:15:49;5.47;;;2.63;;
14001;SDS011;7076;51.280;12.584;2023-06-26T19:20:52;4.93;;;2.47;;
14001;SDS011;7076;51.280;12.584;2023-06-26T19:25:54;2.78;;;2.47;;
14001;SDS011;7076;51.280;12.584;2023-06-26T19:31:00;2.80;;;2.50;;
14001;SDS011;7076;51.280;12.584;2023-06-26T19:36:03;4.93;;;2.45;;
14001;SDS011;7076;51.280;12.584;2023-06-26T19:41:06;2.88;;;2.20;;
14001;SDS011;7076;51.280;12.584;2023-06-26T19:46:10;4.15;;;2.33;;
14001;SDS011;7076;51.280;12.584;2023-06-26T19:51:13;3.38;;;2.40;;
14001;SDS011;7076;51.280;12.584;2023-06-26T19:56:16;4.32;;;2.47;;
14001;SDS011;7076;51.280;12.584;2023-06-26T20:01:22;4.47;;;3.03;;
14001;SDS011;7076;51.280;12.584;2023-06-26T20:06:26;7.40;;;3.00;;
14001;SDS011;7076;51.280;12.584;2023-06-26T20:11:28;3.13;;;2.35;;
14001;SDS011;7076;51.280;12.584;2023-06-26T20:16:33;4.93;;;2.40;;
14001;SDS011;7076;51.280;12.584;2023-06-26T20:21:36;3.13;;;2.45;;
14001;SDS011;7076;51.280;12.584;2023-06-26T20:26:39;5.53;;;2.85;;
14001;SDS011;7076;51.280;12.584;2023-06-26T20:31:44;3.35;;;2.30;;
14001;SDS011;7076;51.280;12.584;2023-06-26T20:36:47;3.35;;;2.20;;
14001;SDS011;7076;51.280;12.584;2023-06-26T20:41:50;3.05;;;2.15;;
14001;SDS011;7076;51.280;12.584;2023-06-26T20:46:55;3.95;;;2.10;;
14001;SDS011;7076;51.280;12.584;2023-06-26T20:52:00;3.83;;;2.30;;
14001;SDS011;7076;51.280;12.584;2023-06-26T20:57:08;7.93;;;2.33;;
14001;SDS011;7076;51.280;12.584;2023-06-26T21:02:13;3.55;;;1.95;;
14001;SDS011;7076;51.280;12.584;2023-06-26T21:07:16;2.90;;;1.70;;
14001;SDS011;7076;51.280;12.584;2023-06-26T21:12:18;5.78;;;1.83;;
14001;SDS011;7076;51.280;12.584;2023-06-26T21:17:23;3.53;;;1.75;;
14001;SDS011;7076;51.280;12.584;2023-06-26T21:22:26;2.28;;;1.50;;
14001;SDS011;7076;51.280;12.584;2023-06-26T21:27:29;1.90;;;1.50;;
14001;SDS011;7076;51.280;12.584;2023-06-26T21:32:33;5.18;;;1.88;;
14001;SDS011;7076;51.280;12.584;2023-06-26T21:37:36;3.58;;;1.25;;
14001;SDS011;7076;51.280;12.584;2023-06-26T21:42:39;2.88;;;1.73;;
14001;SDS011;7076;51.280;12.584;2023-06-26T21:47:44;3.47;;;1.40;;
14001;SDS011;7076;51.280;12.584;2023-06-26T21:52:46;5.18;;;1.60;;
14001;SDS011;7076;51.280;12.584;2023-06-26T21:57:50;3.38;;;1.50;;
14001;SDS011;7076;51.280;12.584;2023-06-26T22:02:54;2.35;;;1.45;;
14001;SDS011;7076;51.280;12.584;2023-06-26T22:07:57;3.03;;;1.50;;
14001;SDS011;7076;51.280;12.584;2023-06-26T22:13:00;3.28;;;1.58;;
14001;SDS011;7076;51.280;12.584;2023-06-26T22:18:04;3.28;;;1.60;;
14001;SDS011;7076;51.280;12.584;2023-06-26T22:23:08;5.53;;;1.65;;
14001;SDS011;7076;51.280;12.584;2023-06-26T22:28:11;2.80;;;1.85;;
14001;SDS011;7076;51.280;12.584;2023-06-26T22:33:15;2.63;;;1.50;;
14001;SDS011;7076;51.280;12.584;2023-06-26T22:38:18;6.28;;;1.70;;
14001;SDS011;7076;51.280;12.584;2023-06-26T22:43:21;2.00;;;1.00;;
14001;SDS011;7076;51.280;12.584;2023-06-26T22:48:25;4.63;;;1.58;;
14001;SDS011;7076;51.280;12.584;2023-06-26T22:53:28;5.70;;;1.50;;
14001;SDS011;7076;51.280;12.584;2023-06-26T22:58:31;3.63;;;1.50;;
14001;SDS011;7076;51.280;12.584;2023-06-26T23:03:35;2.17;;;1.50;;
14001;SDS011;7076;51.280;12.584;2023-06-26T23:08:38;2.65;;;1.40;;
14001;SDS011;7076;51.280;12.584;2023-06-26T23:13:41;3.22;;;1.50;;
14001;SDS011;7076;51.280;12.584;2023-06-26T23:18:45;1.90;;;1.40;;
14001;SDS011;7076;51.280;12.584;2023-06-26T23:23:48;2.95;;;1.50;;
14001;SDS011;7076;51.280;12.584;2023-06-26T23:28:54;4.93;;;1.60;;
14001;SDS011;7076;51.280;12.584;2023-06-26T23:33:58;5.68;;;1.42;;
14001;SDS011;7076;51.280;12.584;2023-06-26T23:39:01;4.45;;;1.73;;
14001;SDS011;7076;51.280;12.584;2023-06-26T23:44:06;3.63;;;1.30;;
14001;SDS011;7076;51.280;12.584;2023-06-26T23:49:10;3.03;;;1.60;;
14001;SDS011;7076;51.280;12.584;2023-06-26T23:54:13;2.60;;;1.73;;
14001;SDS011;7076;51.280;12.584;2023-06-26T23:59:17;2.05;;;1.80;;
